sensor_id;sensor_type;location;lat;lon;timestamp;temperature;humidity
21744;DHT22;11034;48.556;9.342;2023-03-23T05:47:34;13.00;99.90
21744;DHT22;11034;48.556;9.342;2023-03-23T05:50:02;13.00;99.90
21744;DHT22;11034;48.556;9.342;2023-03-23T05:52:29;13.00;99.90
21744;DHT22;11034;48.556;9.342;2023-03-23T05:54:58;13.10;99.90
21744;DHT22;11034;48.556;9.342;2023-03-23T05:57:25;13.20;99.90
21744;DHT22;11034;48.556;9.342;2023-03-23T05:59:52;13.30;99.90
21744;DHT22;11034;48.556;9.342;2023-03-23T06:02:19;13.30;99.90
21744;DHT22;11034;48.556;9.342;2023-03-23T06:04:48;13.40;99.90
21744;DHT22;11034;48.556;9.342;2023-03-23T06:07:15;13.40;99.90
21744;DHT22;11034;48.556;9.342;2023-03-23T06:09:42;13.40;99.90
21744;DHT22;11034;48.556;9.342;2023-03-23T06:12:09;13.40;99.90
21744;DHT22;11034;48.556;9.342;2023-03-23T06:14:37;13.40;99.90
21744;DHT22;11034;48.556;9.342;2023-03-23T06:17:04;13.50;99.90
21744;DHT22;11034;48.556;9.342;2023-03-23T06:19:31;13.50;99.90
21744;DHT22;11034;48.556;9.342;2023-03-23T06:22:01;13.50;99.90
21744;DHT22;11034;48.556;9.342;2023-03-23T06:24:28;13.50;99.90
21744;DHT22;11034;48.556;9.342;2023-03-23T06:26:55;13.50;99.90
21744;DHT22;11034;48.556;9.342;2023-03-23T06:29:22;13.60;99.90
21744;DHT22;11034;48.556;9.342;2023-03-23T06:31:55;13.60;99.90
21744;DHT22;11034;48.556;9.342;2023-03-23T06:34:22;13.60;99.90
21744;DHT22;11034;48.556;9.342;2023-03-23T06:36:50;13.70;99.90
21744;DHT22;11034;48.556;9.342;2023-03-23T06:39:19;13.70;99.90
21744;DHT22;11034;48.556;9.342;2023-03-23T06:41:46;13.80;99.90
21744;DHT22;11034;48.556;9.342;2023-03-23T06:44:13;13.80;99.90
21744;DHT22;11034;48.556;9.342;2023-03-23T06:46:40;13.90;99.90
21744;DHT22;11034;48.556;9.342;2023-03-23T06:49:08;14.00;99.90
21744;DHT22;11034;48.556;9.342;2023-03-23T06:51:35;14.00;99.90
21744;DHT22;11034;48.556;9.342;2023-03-23T06:54:03;14.00;99.90
21744;DHT22;11034;48.556;9.342;2023-03-23T06:56:31;14.00;99.90
21744;DHT22;11034;48.556;9.342;2023-03-23T06:58:58;13.90;99.90
21744;DHT22;11034;48.556;9.342;2023-03-23T07:01:25;13.90;99.90
21744;DHT22;11034;48.556;9.342;2023-03-23T07:03:53;13.90;99.90
21744;DHT22;11034;48.556;9.342;2023-03-23T07:06:21;14.10;99.90
21744;DHT22;11034;48.556;9.342;2023-03-23T07:08:48;14.10;99.90
21744;DHT22;11034;48.556;9.342;2023-03-23T07:11:18;14.20;99.90
21744;DHT22;11034;48.556;9.342;2023-03-23T07:13:47;14.30;99.90
21744;DHT22;11034;48.556;9.342;2023-03-23T07:16:15;14.30;99.90
21744;DHT22;11034;48.556;9.342;2023-03-23T07:18:49;14.40;99.90
21744;DHT22;11034;48.556;9.342;2023-03-23T07:21:21;14.50;99.90
21744;DHT22;11034;48.556;9.342;2023-03-23T07:23:49;14.60;99.90
21744;DHT22;11034;48.556;9.342;2023-03-23T07:26:19;14.70;99.90
21744;DHT22;11034;48.556;9.342;2023-03-23T07:28:51;14.80;99.90
21744;DHT22;11034;48.556;9.342;2023-03-23T07:31:19;15.00;99.90
21744;DHT22;11034;48.556;9.342;2023-03-23T07:33:50;15.00;99.90
21744;DHT22;11034;48.556;9.342;2023-03-23T07:36:22;15.00;99.90
21744;DHT22;11034;48.556;9.342;2023-03-23T07:38:49;15.00;99.90
21744;DHT22;11034;48.556;9.342;2023-03-23T07:41:17;14.90;99.90
21744;DHT22;11034;48.556;9.342;2023-03-23T07:43:43;14.80;99.90
21744;DHT22;11034;48.556;9.342;2023-03-23T15:02:36;17.00;99.90
21744;DHT22;11034;48.556;9.342;2023-03-23T15:05:09;16.90;99.90
21744;DHT22;11034;48.556;9.342;2023-03-23T15:07:38;16.80;99.90
21744;DHT22;11034;48.556;9.342;2023-03-23T15:10:06;16.70;99.90
21744;DHT22;11034;48.556;9.342;2023-03-23T15:12:34;16.70;99.90
21744;DHT22;11034;48.556;9.342;2023-03-23T15:15:03;16.60;99.90
21744;DHT22;11034;48.556;9.342;2023-03-23T15:17:35;16.60;99.90
21744;DHT22;11034;48.556;9.342;2023-03-23T15:20:09;16.60;99.90
21744;DHT22;11034;48.556;9.342;2023-03-23T15:22:36;16.60;99.90
21744;DHT22;11034;48.556;9.342;2023-03-23T15:25:17;16.50;99.90
21744;DHT22;11034;48.556;9.342;2023-03-23T15:27:49;16.50;99.90
21744;DHT22;11034;48.556;9.342;2023-03-23T15:30:29;16.60;99.90
21744;DHT22;11034;48.556;9.342;2023-03-23T15:33:03;16.60;99.90
21744;DHT22;11034;48.556;9.342;2023-03-23T15:35:34;16.50;99.90
21744;DHT22;11034;48.556;9.342;2023-03-23T15:38:03;16.50;99.90
21744;DHT22;11034;48.556;9.342;2023-03-23T15:40:35;16.50;99.90
21744;DHT22;11034;48.556;9.342;2023-03-23T15:43:08;16.50;99.90
21744;DHT22;11034;48.556;9.342;2023-03-23T15:45:52;16.40;99.90
21744;DHT22;11034;48.556;9.342;2023-03-23T15:48:21;16.30;99.90
21744;DHT22;11034;48.556;9.342;2023-03-23T15:50:49;16.20;99.90
21744;DHT22;11034;48.556;9.342;2023-03-23T15:53:26;16.20;99.90
21744;DHT22;11034;48.556;9.342;2023-03-23T15:55:54;16.20;99.90
21744;DHT22;11034;48.556;9.342;2023-03-23T15:58:21;16.20;99.90
21744;DHT22;11034;48.556;9.342;2023-03-23T16:00:50;16.10;99.90
21744;DHT22;11034;48.556;9.342;2023-03-23T16:03:23;16.00;99.90
21744;DHT22;11034;48.556;9.342;2023-03-23T16:05:54;16.00;99.90
21744;DHT22;11034;48.556;9.342;2023-03-23T16:08:23;15.90;99.90
21744;DHT22;11034;48.556;9.342;2023-03-23T16:10:51;15.80;99.90
21744;DHT22;11034;48.556;9.342;2023-03-23T16:13:19;15.70;99.90
21744;DHT22;11034;48.556;9.342;2023-03-23T16:15:48;15.60;99.90
21744;DHT22;11034;48.556;9.342;2023-03-23T16:18:19;15.70;99.90
21744;DHT22;11034;48.556;9.342;2023-03-23T16:20:49;15.70;99.90
21744;DHT22;11034;48.556;9.342;2023-03-23T16:23:17;15.70;99.90
21744;DHT22;11034;48.556;9.342;2023-03-23T16:25:45;15.70;99.90
21744;DHT22;11034;48.556;9.342;2023-03-23T16:28:14;15.70;99.90
21744;DHT22;11034;48.556;9.342;2023-03-23T16:30:43;15.70;99.90
21744;DHT22;11034;48.556;9.342;2023-03-23T16:33:11;15.70;99.90
21744;DHT22;11034;48.556;9.342;2023-03-23T16:35:41;15.70;99.90
21744;DHT22;11034;48.556;9.342;2023-03-23T16:38:12;15.70;99.90
21744;DHT22;11034;48.556;9.342;2023-03-23T16:40:42;15.60;99.90
21744;DHT22;11034;48.556;9.342;2023-03-23T16:43:12;15.60;99.90
21744;DHT22;11034;48.556;9.342;2023-03-23T16:45:41;15.50;99.90
21744;DHT22;11034;48.556;9.342;2023-03-23T16:48:11;15.50;99.90
21744;DHT22;11034;48.556;9.342;2023-03-23T16:50:41;15.50;99.90
21744;DHT22;11034;48.556;9.342;2023-03-23T16:53:10;15.50;99.90
21744;DHT22;11034;48.556;9.342;2023-03-23T16:55:39;15.40;99.90
21744;DHT22;11034;48.556;9.342;2023-03-23T16:58:08;15.40;99.90
21744;DHT22;11034;48.556;9.342;2023-03-23T17:00:45;15.40;99.90
21744;DHT22;11034;48.556;9.342;2023-03-23T17:03:13;15.30;99.90
21744;DHT22;11034;48.556;9.342;2023-03-23T17:05:44;15.30;99.90
21744;DHT22;11034;48.556;9.342;2023-03-23T17:08:13;15.20;99.90
21744;DHT22;11034;48.556;9.342;2023-03-23T17:10:41;15.20;99.90
21744;DHT22;11034;48.556;9.342;2023-03-23T17:13:09;15.20;99.90
21744;DHT22;11034;48.556;9.342;2023-03-23T17:15:38;15.30;99.90
21744;DHT22;11034;48.556;9.342;2023-03-23T17:18:11;15.30;99.90
21744;DHT22;11034;48.556;9.342;2023-03-23T17:20:39;15.30;99.90
21744;DHT22;11034;48.556;9.342;2023-03-23T17:23:08;15.40;99.90
21744;DHT22;11034;48.556;9.342;2023-03-23T17:25:37;15.30;99.90
21744;DHT22;11034;48.556;9.342;2023-03-23T17:28:05;15.30;99.90
21744;DHT22;11034;48.556;9.342;2023-03-23T17:30:33;15.20;99.90
21744;DHT22;11034;48.556;9.342;2023-03-23T17:33:01;15.10;99.90
21744;DHT22;11034;48.556;9.342;2023-03-23T17:35:30;15.10;99.90
21744;DHT22;11034;48.556;9.342;2023-03-23T17:37:58;15.10;99.90
21744;DHT22;11034;48.556;9.342;2023-03-23T17:40:28;15.10;99.90
21744;DHT22;11034;48.556;9.342;2023-03-23T17:42:56;15.10;99.90
21744;DHT22;11034;48.556;9.342;2023-03-23T17:45:24;15.10;99.90
21744;DHT22;11034;48.556;9.342;2023-03-23T17:47:52;15.10;99.90
21744;DHT22;11034;48.556;9.342;2023-03-23T17:50:20;15.10;99.90
21744;DHT22;11034;48.556;9.342;2023-03-23T17:52:49;15.10;99.90
21744;DHT22;11034;48.556;9.342;2023-03-23T17:55:18;15.10;99.90
21744;DHT22;11034;48.556;9.342;2023-03-23T17:57:47;15.10;99.90
21744;DHT22;11034;48.556;9.342;2023-03-23T18:00:17;15.10;99.90
21744;DHT22;11034;48.556;9.342;2023-03-23T18:02:45;15.20;99.90
21744;DHT22;11034;48.556;9.342;2023-03-23T18:05:14;15.10;99.90
21744;DHT22;11034;48.556;9.342;2023-03-23T18:07:42;15.10;99.90
21744;DHT22;11034;48.556;9.342;2023-03-23T18:10:11;15.10;99.90
21744;DHT22;11034;48.556;9.342;2023-03-23T18:12:41;15.00;99.90
21744;DHT22;11034;48.556;9.342;2023-03-23T18:15:11;15.00;99.90
21744;DHT22;11034;48.556;9.342;2023-03-23T18:17:39;15.00;99.90
21744;DHT22;11034;48.556;9.342;2023-03-23T18:20:08;15.00;99.90
21744;DHT22;11034;48.556;9.342;2023-03-23T18:22:36;15.00;99.90
21744;DHT22;11034;48.556;9.342;2023-03-23T18:25:06;15.00;99.90
21744;DHT22;11034;48.556;9.342;2023-03-23T18:27:36;15.00;99.90
21744;DHT22;11034;48.556;9.342;2023-03-23T18:30:07;15.00;99.90
21744;DHT22;11034;48.556;9.342;2023-03-23T18:32:39;15.00;99.90
21744;DHT22;11034;48.556;9.342;2023-03-23T18:35:09;14.90;99.90
21744;DHT22;11034;48.556;9.342;2023-03-23T18:37:38;14.90;99.90
21744;DHT22;11034;48.556;9.342;2023-03-23T18:40:10;14.90;99.90
21744;DHT22;11034;48.556;9.342;2023-03-23T18:42:40;14.80;99.90
21744;DHT22;11034;48.556;9.342;2023-03-23T18:45:10;14.90;99.90
21744;DHT22;11034;48.556;9.342;2023-03-23T18:47:40;14.80;99.90
21744;DHT22;11034;48.556;9.342;2023-03-23T18:50:10;14.90;99.90
21744;DHT22;11034;48.556;9.342;2023-03-23T18:52:38;14.90;99.90
21744;DHT22;11034;48.556;9.342;2023-03-23T18:55:06;15.00;99.90
21744;DHT22;11034;48.556;9.342;2023-03-23T18:57:35;15.00;99.90
21744;DHT22;11034;48.556;9.342;2023-03-23T19:00:06;15.00;99.90
21744;DHT22;11034;48.556;9.342;2023-03-23T19:02:35;15.00;99.90
21744;DHT22;11034;48.556;9.342;2023-03-23T19:05:07;15.00;99.90
21744;DHT22;11034;48.556;9.342;2023-03-23T19:07:35;15.00;99.90
21744;DHT22;11034;48.556;9.342;2023-03-23T19:10:05;15.00;99.90
21744;DHT22;11034;48.556;9.342;2023-03-23T19:12:33;14.90;99.90
21744;DHT22;11034;48.556;9.342;2023-03-23T19:15:01;14.90;99.90
21744;DHT22;11034;48.556;9.342;2023-03-23T19:17:29;14.90;99.90
21744;DHT22;11034;48.556;9.342;2023-03-23T19:19:58;14.90;99.90
21744;DHT22;11034;48.556;9.342;2023-03-23T19:22:32;14.90;99.90
21744;DHT22;11034;48.556;9.342;2023-03-23T19:25:00;14.80;99.90
21744;DHT22;11034;48.556;9.342;2023-03-23T19:27:28;14.80;99.90
21744;DHT22;11034;48.556;9.342;2023-03-23T19:29:57;14.90;99.90
21744;DHT22;11034;48.556;9.342;2023-03-23T19:32:25;14.80;99.90
21744;DHT22;11034;48.556;9.342;2023-03-23T19:34:53;14.80;99.90
21744;DHT22;11034;48.556;9.342;2023-03-23T19:37:22;14.80;99.90
21744;DHT22;11034;48.556;9.342;2023-03-23T19:39:52;14.90;99.90
21744;DHT22;11034;48.556;9.342;2023-03-23T19:42:20;14.80;99.90
21744;DHT22;11034;48.556;9.342;2023-03-23T19:44:48;14.80;99.90
21744;DHT22;11034;48.556;9.342;2023-03-23T19:47:16;14.80;99.90
21744;DHT22;11034;48.556;9.342;2023-03-23T19:49:45;14.80;99.90
21744;DHT22;11034;48.556;9.342;2023-03-23T19:52:13;14.90;99.90
21744;DHT22;11034;48.556;9.342;2023-03-23T19:54:44;14.90;99.90
21744;DHT22;11034;48.556;9.342;2023-03-23T19:57:14;14.90;99.90
21744;DHT22;11034;48.556;9.342;2023-03-23T19:59:42;14.90;99.90
21744;DHT22;11034;48.556;9.342;2023-03-23T20:02:11;14.80;99.90
21744;DHT22;11034;48.556;9.342;2023-03-23T20:04:39;14.80;99.90
21744;DHT22;11034;48.556;9.342;2023-03-23T20:07:09;14.60;99.90
21744;DHT22;11034;48.556;9.342;2023-03-23T20:09:37;14.60;99.90
21744;DHT22;11034;48.556;9.342;2023-03-23T20:12:05;14.60;99.90
21744;DHT22;11034;48.556;9.342;2023-03-23T20:14:36;14.70;99.90
21744;DHT22;11034;48.556;9.342;2023-03-23T20:17:09;14.70;99.90
21744;DHT22;11034;48.556;9.342;2023-03-23T20:19:37;14.70;99.90
21744;DHT22;11034;48.556;9.342;2023-03-23T20:22:06;14.70;99.90
21744;DHT22;11034;48.556;9.342;2023-03-23T20:24:36;14.60;99.90
21744;DHT22;11034;48.556;9.342;2023-03-23T20:27:05;14.60;99.90
21744;DHT22;11034;48.556;9.342;2023-03-23T20:29:34;14.50;99.90
21744;DHT22;11034;48.556;9.342;2023-03-23T20:32:04;14.50;99.90
21744;DHT22;11034;48.556;9.342;2023-03-23T20:34:33;14.40;99.90
21744;DHT22;11034;48.556;9.342;2023-03-23T20:37:02;14.50;99.90
21744;DHT22;11034;48.556;9.342;2023-03-23T20:39:31;14.40;99.90
21744;DHT22;11034;48.556;9.342;2023-03-23T20:42:01;14.30;99.90
21744;DHT22;11034;48.556;9.342;2023-03-23T20:44:32;14.30;99.90
21744;DHT22;11034;48.556;9.342;2023-03-23T20:47:03;14.20;99.90
21744;DHT22;11034;48.556;9.342;2023-03-23T20:49:32;14.10;99.90
21744;DHT22;11034;48.556;9.342;2023-03-23T20:52:04;14.10;99.90
21744;DHT22;11034;48.556;9.342;2023-03-23T20:54:32;14.10;99.90
21744;DHT22;11034;48.556;9.342;2023-03-23T20:57:01;14.10;99.90
21744;DHT22;11034;48.556;9.342;2023-03-23T20:59:29;14.10;99.90
